sensor_id;sensor_type;location;lat;lon;timestamp;P1;durP1;ratioP1;P2;durP2;ratioP2
41309;SDS011;27057;51.438;-0.010;2022-11-18T00:01:14;1.08;;;0.93;;
41309;SDS011;27057;51.438;-0.010;2022-11-18T00:03:44;20.23;;;2.55;;
41309;SDS011;27057;51.438;-0.010;2022-11-18T00:06:13;13.13;;;1.80;;
41309;SDS011;27057;51.438;-0.010;2022-11-18T00:08:43;11.05;;;1.88;;
41309;SDS011;27057;51.438;-0.010;2022-11-18T00:11:11;15.77;;;1.40;;
41309;SDS011;27057;51.438;-0.010;2022-11-18T00:13:59;5.28;;;1.75;;
41309;SDS011;27057;51.438;-0.010;2022-11-18T00:16:49;5.88;;;1.38;;
41309;SDS011;27057;51.438;-0.010;2022-11-18T00:19:26;6.88;;;2.42;;
41309;SDS011;27057;51.438;-0.010;2022-11-18T00:21:55;4.72;;;2.10;;
41309;SDS011;27057;51.438;-0.010;2022-11-18T00:24:23;8.02;;;1.33;;
41309;SDS011;27057;51.438;-0.010;2022-11-18T00:26:52;3.60;;;1.38;;
41309;SDS011;27057;51.438;-0.010;2022-11-18T00:29:20;6.35;;;1.65;;
41309;SDS011;27057;51.438;-0.010;2022-11-18T00:31:48;7.05;;;2.78;;
41309;SDS011;27057;51.438;-0.010;2022-11-18T00:34:16;4.15;;;1.38;;
41309;SDS011;27057;51.438;-0.010;2022-11-18T00:36:45;3.92;;;1.20;;
41309;SDS011;27057;51.438;-0.010;2022-11-18T00:39:13;2.80;;;1.38;;
41309;SDS011;27057;51.438;-0.010;2022-11-18T00:41:43;4.90;;;0.90;;
41309;SDS011;27057;51.438;-0.010;2022-11-18T00:44:29;3.42;;;1.42;;
41309;SDS011;27057;51.438;-0.010;2022-11-18T00:46:57;15.90;;;2.25;;
41309;SDS011;27057;51.438;-0.010;2022-11-18T00:49:24;10.82;;;2.05;;
41309;SDS011;27057;51.438;-0.010;2022-11-18T00:51:52;10.05;;;2.00;;
41309;SDS011;27057;51.438;-0.010;2022-11-18T00:54:19;4.75;;;1.35;;
41309;SDS011;27057;51.438;-0.010;2022-11-18T00:56:47;6.82;;;2.05;;
41309;SDS011;27057;51.438;-0.010;2022-11-18T00:59:14;9.32;;;2.10;;
41309;SDS011;27057;51.438;-0.010;2022-11-18T01:01:42;13.13;;;2.53;;
41309;SDS011;27057;51.438;-0.010;2022-11-18T01:04:10;11.25;;;1.58;;
41309;SDS011;27057;51.438;-0.010;2022-11-18T01:06:37;10.48;;;2.50;;
41309;SDS011;27057;51.438;-0.010;2022-11-18T01:09:05;5.50;;;1.38;;
41309;SDS011;27057;51.438;-0.010;2022-11-18T01:11:32;5.45;;;1.65;;
41309;SDS011;27057;51.438;-0.010;2022-11-18T01:14:18;9.45;;;1.98;;
41309;SDS011;27057;51.438;-0.010;2022-11-18T01:16:45;5.78;;;1.75;;
41309;SDS011;27057;51.438;-0.010;2022-11-18T01:19:17;4.90;;;1.60;;
41309;SDS011;27057;51.438;-0.010;2022-11-18T01:21:45;10.32;;;2.17;;
41309;SDS011;27057;51.438;-0.010;2022-11-18T01:24:12;6.28;;;1.58;;
41309;SDS011;27057;51.438;-0.010;2022-11-18T01:26:40;8.80;;;1.50;;
41309;SDS011;27057;51.438;-0.010;2022-11-18T01:29:08;6.13;;;1.80;;
41309;SDS011;27057;51.438;-0.010;2022-11-18T01:31:36;22.88;;;4.60;;
41309;SDS011;27057;51.438;-0.010;2022-11-18T01:34:23;4.30;;;1.90;;
41309;SDS011;27057;51.438;-0.010;2022-11-18T01:36:53;9.23;;;1.85;;
41309;SDS011;27057;51.438;-0.010;2022-11-18T01:39:22;4.90;;;1.02;;
41309;SDS011;27057;51.438;-0.010;2022-11-18T01:41:49;6.00;;;1.42;;
41309;SDS011;27057;51.438;-0.010;2022-11-18T01:47:21;6.85;;;1.58;;
41309;SDS011;27057;51.438;-0.010;2022-11-18T01:49:51;10.35;;;1.70;;
41309;SDS011;27057;51.438;-0.010;2022-11-18T01:52:19;5.68;;;2.65;;
41309;SDS011;27057;51.438;-0.010;2022-11-18T01:54:49;12.15;;;1.70;;
41309;SDS011;27057;51.438;-0.010;2022-11-18T01:57:21;7.97;;;2.10;;
41309;SDS011;27057;51.438;-0.010;2022-11-18T01:59:49;9.13;;;1.48;;
41309;SDS011;27057;51.438;-0.010;2022-11-18T02:02:20;10.18;;;2.28;;
41309;SDS011;27057;51.438;-0.010;2022-11-18T02:04:49;8.13;;;2.35;;
41309;SDS011;27057;51.438;-0.010;2022-11-18T02:07:19;6.93;;;1.67;;
41309;SDS011;27057;51.438;-0.010;2022-11-18T02:09:47;2.85;;;1.05;;
41309;SDS011;27057;51.438;-0.010;2022-11-18T02:12:16;10.63;;;1.63;;
41309;SDS011;27057;51.438;-0.010;2022-11-18T02:14:44;6.35;;;1.42;;
41309;SDS011;27057;51.438;-0.010;2022-11-18T02:17:16;3.03;;;1.35;;
41309;SDS011;27057;51.438;-0.010;2022-11-18T02:25:37;12.60;;;2.22;;
41309;SDS011;27057;51.438;-0.010;2022-11-18T02:31:09;5.90;;;1.77;;
41309;SDS011;27057;51.438;-0.010;2022-11-18T02:33:46;7.65;;;1.45;;
41309;SDS011;27057;51.438;-0.010;2022-11-18T02:36:22;9.90;;;3.03;;
41309;SDS011;27057;51.438;-0.010;2022-11-18T02:38:56;5.32;;;1.73;;
41309;SDS011;27057;51.438;-0.010;2022-11-18T02:41:29;2.55;;;1.02;;
41309;SDS011;27057;51.438;-0.010;2022-11-18T02:44:03;3.88;;;1.30;;
41309;SDS011;27057;51.438;-0.010;2022-11-18T02:46:34;4.68;;;1.83;;
41309;SDS011;27057;51.438;-0.010;2022-11-18T02:49:06;8.98;;;2.20;;
41309;SDS011;27057;51.438;-0.010;2022-11-18T02:51:41;4.70;;;1.35;;
41309;SDS011;27057;51.438;-0.010;2022-11-18T02:54:10;4.47;;;1.60;;
41309;SDS011;27057;51.438;-0.010;2022-11-18T02:56:39;3.80;;;1.23;;
41309;SDS011;27057;51.438;-0.010;2022-11-18T02:59:07;4.55;;;1.48;;
41309;SDS011;27057;51.438;-0.010;2022-11-18T03:01:35;9.68;;;1.90;;
41309;SDS011;27057;51.438;-0.010;2022-11-18T03:04:02;6.72;;;1.63;;
41309;SDS011;27057;51.438;-0.010;2022-11-18T03:06:37;13.82;;;3.92;;
41309;SDS011;27057;51.438;-0.010;2022-11-18T03:15:02;9.82;;;2.55;;
41309;SDS011;27057;51.438;-0.010;2022-11-18T03:17:48;7.70;;;1.42;;
41309;SDS011;27057;51.438;-0.010;2022-11-18T03:20:26;7.63;;;1.33;;
41309;SDS011;27057;51.438;-0.010;2022-11-18T03:25:43;7.85;;;1.77;;
41309;SDS011;27057;51.438;-0.010;2022-11-18T03:28:18;5.70;;;1.13;;
41309;SDS011;27057;51.438;-0.010;2022-11-18T03:31:06;6.88;;;1.90;;
41309;SDS011;27057;51.438;-0.010;2022-11-18T03:33:39;4.55;;;0.90;;
41309;SDS011;27057;51.438;-0.010;2022-11-18T03:36:11;4.55;;;1.17;;
41309;SDS011;27057;51.438;-0.010;2022-11-18T03:38:50;4.65;;;1.23;;
41309;SDS011;27057;51.438;-0.010;2022-11-18T03:41:23;7.35;;;2.30;;
41309;SDS011;27057;51.438;-0.010;2022-11-18T03:43:55;6.18;;;1.35;;
41309;SDS011;27057;51.438;-0.010;2022-11-18T03:46:39;12.18;;;0.82;;
41309;SDS011;27057;51.438;-0.010;2022-11-18T03:49:16;3.87;;;1.67;;
41309;SDS011;27057;51.438;-0.010;2022-11-18T03:51:55;5.22;;;1.30;;
41309;SDS011;27057;51.438;-0.010;2022-11-18T03:54:29;13.45;;;1.70;;
41309;SDS011;27057;51.438;-0.010;2022-11-18T03:57:07;2.92;;;1.35;;
41309;SDS011;27057;51.438;-0.010;2022-11-18T03:59:39;20.98;;;2.05;;
41309;SDS011;27057;51.438;-0.010;2022-11-18T04:02:17;4.05;;;1.70;;
41309;SDS011;27057;51.438;-0.010;2022-11-18T04:04:48;5.60;;;1.02;;
41309;SDS011;27057;51.438;-0.010;2022-11-18T04:07:29;5.88;;;1.35;;
41309;SDS011;27057;51.438;-0.010;2022-11-18T04:10:10;7.47;;;1.60;;
41309;SDS011;27057;51.438;-0.010;2022-11-18T04:13:03;2.35;;;0.85;;
41309;SDS011;27057;51.438;-0.010;2022-11-18T04:15:35;10.13;;;1.38;;
41309;SDS011;27057;51.438;-0.010;2022-11-18T04:18:04;6.10;;;1.20;;
41309;SDS011;27057;51.438;-0.010;2022-11-18T04:20:31;9.00;;;2.25;;
41309;SDS011;27057;51.438;-0.010;2022-11-18T04:22:59;1.85;;;1.15;;
41309;SDS011;27057;51.438;-0.010;2022-11-18T04:25:27;3.63;;;1.38;;
41309;SDS011;27057;51.438;-0.010;2022-11-18T04:27:54;5.88;;;0.77;;
41309;SDS011;27057;51.438;-0.010;2022-11-18T04:30:21;4.20;;;1.85;;
41309;SDS011;27057;51.438;-0.010;2022-11-18T04:32:48;2.55;;;1.15;;
41309;SDS011;27057;51.438;-0.010;2022-11-18T04:35:16;11.50;;;1.85;;
41309;SDS011;27057;51.438;-0.010;2022-11-18T04:37:43;6.78;;;0.75;;
41309;SDS011;27057;51.438;-0.010;2022-11-18T04:40:10;7.32;;;1.67;;
41309;SDS011;27057;51.438;-0.010;2022-11-18T04:42:38;4.47;;;2.17;;
41309;SDS011;27057;51.438;-0.010;2022-11-18T04:45:05;7.10;;;1.15;;
41309;SDS011;27057;51.438;-0.010;2022-11-18T04:47:34;6.85;;;1.58;;
41309;SDS011;27057;51.438;-0.010;2022-11-18T04:50:01;7.40;;;0.82;;
41309;SDS011;27057;51.438;-0.010;2022-11-18T04:52:29;3.03;;;1.00;;
41309;SDS011;27057;51.438;-0.010;2022-11-18T04:54:56;3.05;;;1.08;;
41309;SDS011;27057;51.438;-0.010;2022-11-18T04:57:23;3.22;;;1.40;;
41309;SDS011;27057;51.438;-0.010;2022-11-18T04:59:51;1.52;;;0.90;;
41309;SDS011;27057;51.438;-0.010;2022-11-18T05:02:18;3.83;;;1.08;;
41309;SDS011;27057;51.438;-0.010;2022-11-18T05:04:45;6.97;;;1.80;;
41309;SDS011;27057;51.438;-0.010;2022-11-18T05:07:13;8.38;;;1.45;;
41309;SDS011;27057;51.438;-0.010;2022-11-18T05:09:41;3.50;;;1.35;;
41309;SDS011;27057;51.438;-0.010;2022-11-18T05:12:12;2.20;;;0.75;;
41309;SDS011;27057;51.438;-0.010;2022-11-18T05:14:59;1.52;;;0.70;;
41309;SDS011;27057;51.438;-0.010;2022-11-18T05:17:26;7.28;;;1.55;;
41309;SDS011;27057;51.438;-0.010;2022-11-18T05:19:53;11.18;;;1.63;;
41309;SDS011;27057;51.438;-0.010;2022-11-18T05:22:21;7.50;;;1.58;;
41309;SDS011;27057;51.438;-0.010;2022-11-18T05:24:49;2.05;;;1.67;;
41309;SDS011;27057;51.438;-0.010;2022-11-18T05:27:16;9.63;;;1.40;;
41309;SDS011;27057;51.438;-0.010;2022-11-18T05:29:43;3.75;;;2.15;;
41309;SDS011;27057;51.438;-0.010;2022-11-18T05:32:11;6.38;;;1.52;;
41309;SDS011;27057;51.438;-0.010;2022-11-18T05:34:39;5.85;;;2.05;;
41309;SDS011;27057;51.438;-0.010;2022-11-18T05:37:07;18.17;;;1.75;;
41309;SDS011;27057;51.438;-0.010;2022-11-18T05:39:35;10.55;;;1.63;;
41309;SDS011;27057;51.438;-0.010;2022-11-18T05:42:02;11.85;;;1.33;;
41309;SDS011;27057;51.438;-0.010;2022-11-18T05:44:48;3.22;;;1.30;;
41309;SDS011;27057;51.438;-0.010;2022-11-18T05:47:24;8.50;;;1.23;;
41309;SDS011;27057;51.438;-0.010;2022-11-18T05:49:51;4.30;;;1.45;;
41309;SDS011;27057;51.438;-0.010;2022-11-18T05:52:18;5.38;;;1.10;;
41309;SDS011;27057;51.438;-0.010;2022-11-18T05:54:47;1.80;;;1.23;;
41309;SDS011;27057;51.438;-0.010;2022-11-18T05:57:16;2.40;;;0.93;;
41309;SDS011;27057;51.438;-0.010;2022-11-18T05:59:43;3.67;;;1.15;;
41309;SDS011;27057;51.438;-0.010;2022-11-18T06:02:12;3.35;;;1.77;;
41309;SDS011;27057;51.438;-0.010;2022-11-18T06:07:19;10.45;;;1.42;;
41309;SDS011;27057;51.438;-0.010;2022-11-18T06:09:49;8.73;;;2.03;;
41309;SDS011;27057;51.438;-0.010;2022-11-18T06:12:22;4.28;;;1.63;;
41309;SDS011;27057;51.438;-0.010;2022-11-18T06:14:57;1.70;;;0.85;;
41309;SDS011;27057;51.438;-0.010;2022-11-18T06:17:54;11.65;;;1.42;;
41309;SDS011;27057;51.438;-0.010;2022-11-18T06:20:25;5.57;;;1.38;;
41309;SDS011;27057;51.438;-0.010;2022-11-18T06:22:54;2.97;;;1.52;;
41309;SDS011;27057;51.438;-0.010;2022-11-18T06:25:23;5.35;;;1.25;;
41309;SDS011;27057;51.438;-0.010;2022-11-18T06:27:51;6.72;;;1.00;;
41309;SDS011;27057;51.438;-0.010;2022-11-18T06:30:22;4.57;;;1.75;;
41309;SDS011;27057;51.438;-0.010;2022-11-18T06:32:49;5.60;;;1.38;;
41309;SDS011;27057;51.438;-0.010;2022-11-18T06:35:16;8.10;;;1.83;;
41309;SDS011;27057;51.438;-0.010;2022-11-18T06:37:45;12.93;;;2.28;;
41309;SDS011;27057;51.438;-0.010;2022-11-18T06:40:12;9.77;;;2.13;;
41309;SDS011;27057;51.438;-0.010;2022-11-18T06:42:40;3.03;;;1.40;;
41309;SDS011;27057;51.438;-0.010;2022-11-18T06:45:26;5.80;;;1.33;;
41309;SDS011;27057;51.438;-0.010;2022-11-18T06:47:56;19.05;;;1.45;;
41309;SDS011;27057;51.438;-0.010;2022-11-18T06:50:26;4.90;;;1.30;;
41309;SDS011;27057;51.438;-0.010;2022-11-18T06:52:54;11.55;;;1.60;;
41309;SDS011;27057;51.438;-0.010;2022-11-18T06:55:22;4.93;;;0.90;;
41309;SDS011;27057;51.438;-0.010;2022-11-18T06:57:49;2.83;;;1.42;;
41309;SDS011;27057;51.438;-0.010;2022-11-18T07:00:17;15.18;;;1.95;;
41309;SDS011;27057;51.438;-0.010;2022-11-18T07:02:44;10.30;;;2.10;;
41309;SDS011;27057;51.438;-0.010;2022-11-18T07:05:11;1.83;;;0.90;;
41309;SDS011;27057;51.438;-0.010;2022-11-18T07:07:39;7.75;;;1.75;;
41309;SDS011;27057;51.438;-0.010;2022-11-18T07:10:08;4.55;;;1.98;;
41309;SDS011;27057;51.438;-0.010;2022-11-18T07:12:35;10.05;;;1.48;;
41309;SDS011;27057;51.438;-0.010;2022-11-18T07:15:03;5.05;;;1.40;;
41309;SDS011;27057;51.438;-0.010;2022-11-18T07:17:30;6.18;;;1.67;;
41309;SDS011;27057;51.438;-0.010;2022-11-18T07:19:57;0.40;;;0.40;;
41309;SDS011;27057;51.438;-0.010;2022-11-18T07:22:25;2.05;;;1.25;;
41309;SDS011;27057;51.438;-0.010;2022-11-18T07:24:53;13.70;;;1.30;;
41309;SDS011;27057;51.438;-0.010;2022-11-18T07:27:20;6.47;;;1.52;;
41309;SDS011;27057;51.438;-0.010;2022-11-18T07:29:47;9.43;;;1.65;;
41309;SDS011;27057;51.438;-0.010;2022-11-18T07:32:14;6.50;;;1.90;;
41309;SDS011;27057;51.438;-0.010;2022-11-18T07:34:42;9.43;;;1.63;;
41309;SDS011;27057;51.438;-0.010;2022-11-18T07:37:10;4.10;;;1.90;;
41309;SDS011;27057;51.438;-0.010;2022-11-18T07:39:38;7.13;;;1.80;;
41309;SDS011;27057;51.438;-0.010;2022-11-18T07:42:06;2.65;;;1.17;;
41309;SDS011;27057;51.438;-0.010;2022-11-18T07:44:35;3.80;;;1.38;;
41309;SDS011;27057;51.438;-0.010;2022-11-18T07:47:02;12.73;;;1.75;;
41309;SDS011;27057;51.438;-0.010;2022-11-18T07:49:30;7.13;;;1.60;;
41309;SDS011;27057;51.438;-0.010;2022-11-18T07:51:57;2.70;;;0.93;;
41309;SDS011;27057;51.438;-0.010;2022-11-18T07:54:24;5.53;;;1.67;;
41309;SDS011;27057;51.438;-0.010;2022-11-18T07:56:52;4.63;;;1.65;;
41309;SDS011;27057;51.438;-0.010;2022-11-18T07:59:19;7.13;;;1.27;;
41309;SDS011;27057;51.438;-0.010;2022-11-18T08:01:47;8.80;;;1.55;;
41309;SDS011;27057;51.438;-0.010;2022-11-18T08:04:14;3.67;;;1.00;;
41309;SDS011;27057;51.438;-0.010;2022-11-18T08:06:43;13.13;;;2.17;;
41309;SDS011;27057;51.438;-0.010;2022-11-18T08:09:11;12.63;;;1.73;;
41309;SDS011;27057;51.438;-0.010;2022-11-18T08:11:38;4.03;;;1.80;;
41309;SDS011;27057;51.438;-0.010;2022-11-18T08:14:06;9.80;;;1.77;;
41309;SDS011;27057;51.438;-0.010;2022-11-18T08:16:34;5.20;;;1.65;;
41309;SDS011;27057;51.438;-0.010;2022-11-18T08:19:01;1.75;;;1.10;;
41309;SDS011;27057;51.438;-0.010;2022-11-18T08:21:29;5.80;;;1.80;;
41309;SDS011;27057;51.438;-0.010;2022-11-18T08:23:56;6.68;;;1.70;;
41309;SDS011;27057;51.438;-0.010;2022-11-18T08:26:25;9.40;;;1.80;;
41309;SDS011;27057;51.438;-0.010;2022-11-18T08:28:52;9.07;;;1.50;;
41309;SDS011;27057;51.438;-0.010;2022-11-18T08:31:21;10.55;;;1.25;;
41309;SDS011;27057;51.438;-0.010;2022-11-18T08:34:04;13.20;;;2.00;;
41309;SDS011;27057;51.438;-0.010;2022-11-18T08:36:34;9.07;;;2.50;;
41309;SDS011;27057;51.438;-0.010;2022-11-18T08:39:05;4.60;;;1.15;;
41309;SDS011;27057;51.438;-0.010;2022-11-18T08:44:05;2.03;;;1.20;;
41309;SDS011;27057;51.438;-0.010;2022-11-18T08:46:36;10.70;;;1.85;;
41309;SDS011;27057;51.438;-0.010;2022-11-18T08:49:04;12.45;;;5.55;;
41309;SDS011;27057;51.438;-0.010;2022-11-18T08:51:31;14.15;;;2.25;;
41309;SDS011;27057;51.438;-0.010;2022-11-18T08:53:59;6.75;;;2.47;;
41309;SDS011;27057;51.438;-0.010;2022-11-18T08:56:26;12.55;;;2.17;;
41309;SDS011;27057;51.438;-0.010;2022-11-18T08:58:54;22.88;;;1.58;;
41309;SDS011;27057;51.438;-0.010;2022-11-18T09:01:22;6.53;;;1.83;;
41309;SDS011;27057;51.438;-0.010;2022-11-18T09:03:49;6.32;;;1.50;;
41309;SDS011;27057;51.438;-0.010;2022-11-18T09:06:18;5.38;;;1.83;;
41309;SDS011;27057;51.438;-0.010;2022-11-18T09:08:48;6.95;;;1.05;;
41309;SDS011;27057;51.438;-0.010;2022-11-18T09:11:17;20.02;;;2.03;;
41309;SDS011;27057;51.438;-0.010;2022-11-18T09:13:52;6.65;;;1.58;;
41309;SDS011;27057;51.438;-0.010;2022-11-18T09:16:41;5.28;;;1.67;;
41309;SDS011;27057;51.438;-0.010;2022-11-18T09:19:09;9.48;;;1.85;;
41309;SDS011;27057;51.438;-0.010;2022-11-18T09:21:56;4.15;;;1.23;;
41309;SDS011;27057;51.438;-0.010;2022-11-18T09:24:24;12.45;;;2.33;;
41309;SDS011;27057;51.438;-0.010;2022-11-18T09:26:52;8.05;;;2.13;;
41309;SDS011;27057;51.438;-0.010;2022-11-18T09:29:19;15.70;;;1.85;;
41309;SDS011;27057;51.438;-0.010;2022-11-18T09:31:51;3.15;;;1.13;;
41309;SDS011;27057;51.438;-0.010;2022-11-18T09:34:20;8.05;;;1.00;;
41309;SDS011;27057;51.438;-0.010;2022-11-18T09:36:48;14.32;;;2.10;;
41309;SDS011;27057;51.438;-0.010;2022-11-18T09:39:15;7.47;;;2.20;;
41309;SDS011;27057;51.438;-0.010;2022-11-18T09:41:44;10.48;;;1.80;;
41309;SDS011;27057;51.438;-0.010;2022-11-18T09:44:28;14.55;;;2.28;;
41309;SDS011;27057;51.438;-0.010;2022-11-18T09:49:53;12.45;;;2.67;;
41309;SDS011;27057;51.438;-0.010;2022-11-18T09:52:38;12.00;;;2.58;;
41309;SDS011;27057;51.438;-0.010;2022-11-18T09:55:11;9.27;;;2.35;;
41309;SDS011;27057;51.438;-0.010;2022-11-18T09:57:44;13.07;;;2.63;;
41309;SDS011;27057;51.438;-0.010;2022-11-18T10:00:19;14.52;;;2.92;;
41309;SDS011;27057;51.438;-0.010;2022-11-18T10:05:26;20.73;;;3.50;;
41309;SDS011;27057;51.438;-0.010;2022-11-18T10:10:37;7.30;;;2.58;;
41309;SDS011;27057;51.438;-0.010;2022-11-18T10:15:59;14.00;;;1.63;;
41309;SDS011;27057;51.438;-0.010;2022-11-18T10:18:42;9.00;;;2.17;;
41309;SDS011;27057;51.438;-0.010;2022-11-18T10:21:54;8.00;;;1.05;;
41309;SDS011;27057;51.438;-0.010;2022-11-18T10:24:48;17.70;;;2.08;;
41309;SDS011;27057;51.438;-0.010;2022-11-18T10:27:18;17.65;;;2.95;;
41309;SDS011;27057;51.438;-0.010;2022-11-18T10:29:52;6.85;;;1.25;;
41309;SDS011;27057;51.438;-0.010;2022-11-18T10:32:22;6.88;;;2.33;;
41309;SDS011;27057;51.438;-0.010;2022-11-18T10:34:54;5.78;;;1.08;;
41309;SDS011;27057;51.438;-0.010;2022-11-18T10:37:30;5.97;;;2.15;;
41309;SDS011;27057;51.438;-0.010;2022-11-18T10:40:23;5.35;;;2.08;;
41309;SDS011;27057;51.438;-0.010;2022-11-18T10:42:52;6.72;;;1.77;;
41309;SDS011;27057;51.438;-0.010;2022-11-18T10:50:37;14.15;;;2.28;;
41309;SDS011;27057;51.438;-0.010;2022-11-18T10:53:27;12.82;;;1.75;;
41309;SDS011;27057;51.438;-0.010;2022-11-18T10:56:05;8.65;;;1.95;;
41309;SDS011;27057;51.438;-0.010;2022-11-18T10:58:35;7.10;;;1.55;;
41309;SDS011;27057;51.438;-0.010;2022-11-18T11:01:13;8.85;;;1.65;;
41309;SDS011;27057;51.438;-0.010;2022-11-18T11:03:57;22.50;;;1.83;;
41309;SDS011;27057;51.438;-0.010;2022-11-18T11:09:02;7.85;;;1.85;;
41309;SDS011;27057;51.438;-0.010;2022-11-18T11:17:05;6.03;;;1.50;;
41309;SDS011;27057;51.438;-0.010;2022-11-18T11:22:17;13.93;;;2.40;;
41309;SDS011;27057;51.438;-0.010;2022-11-18T11:24:44;12.60;;;1.73;;
41309;SDS011;27057;51.438;-0.010;2022-11-18T11:27:56;5.63;;;1.67;;
41309;SDS011;27057;51.438;-0.010;2022-11-18T11:30:36;7.38;;;1.55;;
41309;SDS011;27057;51.438;-0.010;2022-11-18T11:41:20;15.30;;;1.73;;
41309;SDS011;27057;51.438;-0.010;2022-11-18T12:07:25;4.95;;;1.48;;
41309;SDS011;27057;51.438;-0.010;2022-11-18T12:12:51;9.27;;;2.17;;
41309;SDS011;27057;51.438;-0.010;2022-11-18T12:20:57;8.73;;;1.40;;
41309;SDS011;27057;51.438;-0.010;2022-11-18T12:23:28;6.20;;;1.48;;
41309;SDS011;27057;51.438;-0.010;2022-11-18T12:26:00;11.82;;;1.58;;
41309;SDS011;27057;51.438;-0.010;2022-11-18T12:28:39;8.90;;;1.80;;
41309;SDS011;27057;51.438;-0.010;2022-11-18T12:36:53;7.10;;;1.20;;
41309;SDS011;27057;51.438;-0.010;2022-11-18T12:41:54;3.60;;;0.95;;
41309;SDS011;27057;51.438;-0.010;2022-11-18T12:44:42;7.72;;;1.50;;
41309;SDS011;27057;51.438;-0.010;2022-11-18T12:47:12;13.70;;;2.25;;
41309;SDS011;27057;51.438;-0.010;2022-11-18T12:55:00;6.10;;;1.40;;
41309;SDS011;27057;51.438;-0.010;2022-11-18T12:57:33;12.35;;;1.60;;
41309;SDS011;27057;51.438;-0.010;2022-11-18T13:00:17;7.35;;;1.73;;
41309;SDS011;27057;51.438;-0.010;2022-11-18T13:02:51;6.78;;;1.42;;
41309;SDS011;27057;51.438;-0.010;2022-11-18T13:05:21;9.35;;;1.73;;
41309;SDS011;27057;51.438;-0.010;2022-11-18T13:07:57;1.35;;;0.77;;
41309;SDS011;27057;51.438;-0.010;2022-11-18T13:10:45;4.28;;;0.93;;
41309;SDS011;27057;51.438;-0.010;2022-11-18T13:13:40;5.75;;;1.58;;
41309;SDS011;27057;51.438;-0.010;2022-11-18T13:16:18;4.22;;;0.90;;
41309;SDS011;27057;51.438;-0.010;2022-11-18T13:19:08;6.38;;;2.05;;
41309;SDS011;27057;51.438;-0.010;2022-11-18T13:21:35;6.22;;;1.17;;
41309;SDS011;27057;51.438;-0.010;2022-11-18T13:24:21;2.20;;;0.45;;
41309;SDS011;27057;51.438;-0.010;2022-11-18T13:26:53;4.10;;;1.30;;
41309;SDS011;27057;51.438;-0.010;2022-11-18T13:32:21;5.93;;;1.38;;
41309;SDS011;27057;51.438;-0.010;2022-11-18T13:34:51;7.28;;;1.20;;
41309;SDS011;27057;51.438;-0.010;2022-11-18T13:37:25;2.30;;;0.80;;
41309;SDS011;27057;51.438;-0.010;2022-11-18T13:39:54;4.13;;;1.33;;
41309;SDS011;27057;51.438;-0.010;2022-11-18T13:42:23;1.85;;;0.65;;
41309;SDS011;27057;51.438;-0.010;2022-11-18T13:44:58;4.88;;;1.35;;
41309;SDS011;27057;51.438;-0.010;2022-11-18T13:52:37;6.30;;;1.40;;
41309;SDS011;27057;51.438;-0.010;2022-11-18T13:55:16;2.63;;;1.10;;
41309;SDS011;27057;51.438;-0.010;2022-11-18T13:58:04;8.35;;;1.40;;
41309;SDS011;27057;51.438;-0.010;2022-11-18T14:00:55;3.65;;;1.40;;
41309;SDS011;27057;51.438;-0.010;2022-11-18T14:03:34;6.15;;;1.60;;
41309;SDS011;27057;51.438;-0.010;2022-11-18T14:09:17;4.55;;;1.20;;
41309;SDS011;27057;51.438;-0.010;2022-11-18T14:12:00;8.15;;;2.17;;
41309;SDS011;27057;51.438;-0.010;2022-11-18T14:17:03;2.85;;;1.27;;
41309;SDS011;27057;51.438;-0.010;2022-11-18T14:19:50;4.25;;;1.05;;
41309;SDS011;27057;51.438;-0.010;2022-11-18T14:24:54;2.22;;;1.10;;
41309;SDS011;27057;51.438;-0.010;2022-11-18T14:27:38;2.42;;;1.00;;
41309;SDS011;27057;51.438;-0.010;2022-11-18T14:35:54;6.60;;;1.40;;
41309;SDS011;27057;51.438;-0.010;2022-11-18T14:38:27;6.95;;;1.90;;
41309;SDS011;27057;51.438;-0.010;2022-11-18T14:41:21;3.45;;;1.48;;
41309;SDS011;27057;51.438;-0.010;2022-11-18T14:44:11;6.97;;;1.25;;
41309;SDS011;27057;51.438;-0.010;2022-11-18T14:46:42;3.28;;;1.27;;
41309;SDS011;27057;51.438;-0.010;2022-11-18T14:49:16;10.20;;;1.77;;
41309;SDS011;27057;51.438;-0.010;2022-11-18T14:51:45;4.18;;;1.30;;
41309;SDS011;27057;51.438;-0.010;2022-11-18T14:54:13;3.78;;;1.25;;
41309;SDS011;27057;51.438;-0.010;2022-11-18T14:56:49;5.32;;;1.75;;
41309;SDS011;27057;51.438;-0.010;2022-11-18T14:59:18;5.70;;;1.52;;
41309;SDS011;27057;51.438;-0.010;2022-11-18T15:01:46;8.05;;;2.00;;
41309;SDS011;27057;51.438;-0.010;2022-11-18T15:04:14;5.47;;;1.27;;
41309;SDS011;27057;51.438;-0.010;2022-11-18T15:06:43;5.75;;;1.50;;
41309;SDS011;27057;51.438;-0.010;2022-11-18T15:09:11;4.40;;;1.60;;
41309;SDS011;27057;51.438;-0.010;2022-11-18T15:11:39;5.75;;;1.13;;
41309;SDS011;27057;51.438;-0.010;2022-11-18T15:14:06;5.65;;;1.73;;
41309;SDS011;27057;51.438;-0.010;2022-11-18T15:16:34;5.38;;;1.27;;
41309;SDS011;27057;51.438;-0.010;2022-11-18T15:19:02;6.28;;;1.58;;
41309;SDS011;27057;51.438;-0.010;2022-11-18T15:21:32;13.32;;;1.80;;
41309;SDS011;27057;51.438;-0.010;2022-11-18T15:23:59;5.28;;;1.70;;
41309;SDS011;27057;51.438;-0.010;2022-11-18T15:26:28;4.97;;;1.52;;
41309;SDS011;27057;51.438;-0.010;2022-11-18T15:28:59;6.03;;;1.88;;
41309;SDS011;27057;51.438;-0.010;2022-11-18T15:31:27;6.97;;;1.88;;
41309;SDS011;27057;51.438;-0.010;2022-11-18T15:33:54;3.53;;;1.33;;
41309;SDS011;27057;51.438;-0.010;2022-11-18T15:36:27;9.70;;;1.95;;
41309;SDS011;27057;51.438;-0.010;2022-11-18T15:38:55;2.83;;;1.50;;
41309;SDS011;27057;51.438;-0.010;2022-11-18T15:41:23;9.73;;;1.85;;
41309;SDS011;27057;51.438;-0.010;2022-11-18T15:43:53;2.95;;;1.42;;
41309;SDS011;27057;51.438;-0.010;2022-11-18T15:46:22;6.90;;;1.60;;
41309;SDS011;27057;51.438;-0.010;2022-11-18T15:48:55;5.18;;;1.77;;
41309;SDS011;27057;51.438;-0.010;2022-11-18T15:51:24;3.63;;;1.50;;
41309;SDS011;27057;51.438;-0.010;2022-11-18T15:53:53;3.72;;;1.65;;
41309;SDS011;27057;51.438;-0.010;2022-11-18T15:58:52;12.30;;;3.38;;
41309;SDS011;27057;51.438;-0.010;2022-11-18T16:01:23;6.40;;;1.98;;
41309;SDS011;27057;51.438;-0.010;2022-11-18T16:03:52;6.38;;;1.80;;
41309;SDS011;27057;51.438;-0.010;2022-11-18T16:06:20;11.48;;;1.73;;
41309;SDS011;27057;51.438;-0.010;2022-11-18T16:08:48;8.65;;;4.72;;
41309;SDS011;27057;51.438;-0.010;2022-11-18T16:11:25;44.50;;;16.73;;
41309;SDS011;27057;51.438;-0.010;2022-11-18T16:14:12;27.75;;;9.05;;
41309;SDS011;27057;51.438;-0.010;2022-11-18T16:16:41;27.77;;;10.25;;
41309;SDS011;27057;51.438;-0.010;2022-11-18T16:19:10;24.27;;;8.93;;
41309;SDS011;27057;51.438;-0.010;2022-11-18T16:21:40;9.85;;;3.78;;
41309;SDS011;27057;51.438;-0.010;2022-11-18T16:24:16;12.30;;;4.60;;
41309;SDS011;27057;51.438;-0.010;2022-11-18T16:26:46;13.25;;;2.28;;
41309;SDS011;27057;51.438;-0.010;2022-11-18T16:29:14;9.57;;;3.17;;
41309;SDS011;27057;51.438;-0.010;2022-11-18T16:31:44;7.20;;;3.15;;
41309;SDS011;27057;51.438;-0.010;2022-11-18T16:36:49;7.55;;;3.00;;
41309;SDS011;27057;51.438;-0.010;2022-11-18T16:39:18;5.38;;;2.38;;
41309;SDS011;27057;51.438;-0.010;2022-11-18T16:41:55;7.40;;;2.67;;
41309;SDS011;27057;51.438;-0.010;2022-11-18T16:44:33;10.30;;;2.40;;
41309;SDS011;27057;51.438;-0.010;2022-11-18T16:47:01;4.35;;;2.10;;
41309;SDS011;27057;51.438;-0.010;2022-11-18T16:49:36;6.57;;;2.05;;
41309;SDS011;27057;51.438;-0.010;2022-11-18T16:52:03;4.35;;;1.33;;
41309;SDS011;27057;51.438;-0.010;2022-11-18T16:54:33;4.75;;;1.60;;
41309;SDS011;27057;51.438;-0.010;2022-11-18T16:57:07;3.92;;;2.05;;
41309;SDS011;27057;51.438;-0.010;2022-11-18T16:59:34;6.40;;;1.77;;
41309;SDS011;27057;51.438;-0.010;2022-11-18T17:02:01;10.77;;;1.90;;
41309;SDS011;27057;51.438;-0.010;2022-11-18T17:04:29;8.82;;;2.38;;
41309;SDS011;27057;51.438;-0.010;2022-11-18T17:06:56;7.63;;;3.17;;
41309;SDS011;27057;51.438;-0.010;2022-11-18T17:09:25;5.43;;;2.00;;
41309;SDS011;27057;51.438;-0.010;2022-11-18T17:11:53;4.20;;;1.70;;